Finike, Turkey
Current Conditions -  °F | °C
As of 7:50 PM on Thursday 30 Oct 2014 (Local Time) from LTAI Reporting Station
Thunderstorm Thunderstorm  
Wind Chill: 61°   Ceiling: 2500
Heat Index: 61°   Visibility: 6mi
Dew Point: 59°   Wind: 3mph
Humidity: 94%   Direction: 300°WNW
Pressure: 29.94"   Gusts: NA
Location:  36.3°N, 30.14°E
Report Text: LTAI 301650Z 30003KT 260V340 9999 VCTS FEW015CB BKN025 16/15 Q1014 RETSRA NOSIG
Loading
Personal Weather Stations






























Interactive Weather Map
Tropical Storm Tracking
New forecast layout! Learn more

10-Day Weather Forecast

Advertisements
Track Severe Weather on mobile